createdAt,value
2022-12-14T00:02:15.730Z,100311.88
2022-12-14T00:04:44.418Z,100316.06
2022-12-14T00:07:12.855Z,100297.19
2022-12-14T00:09:39.494Z,100297.31
2022-12-14T00:12:11.479Z,100299.59
2022-12-14T00:14:38.070Z,100304.50
2022-12-14T00:17:07.163Z,100301.13
2022-12-14T00:19:34.085Z,100296.66
2022-12-14T00:22:02.470Z,100303.47
2022-12-14T00:24:29.091Z,100293.97
2022-12-14T00:26:57.824Z,100297.25
2022-12-14T00:29:24.449Z,100298.00
2022-12-14T00:31:54.254Z,100307.34
2022-12-14T00:34:21.086Z,100302.88
2022-12-14T00:36:49.533Z,100301.88
2022-12-14T00:39:16.165Z,100307.06
2022-12-14T00:41:43.459Z,100302.75
2022-12-14T00:44:10.347Z,100310.34
2022-12-14T00:46:38.710Z,100312.75
2022-12-14T00:49:07.008Z,100305.75
2022-12-14T00:51:34.022Z,100307.50
2022-12-14T00:54:00.581Z,100307.50
2022-12-14T00:56:27.470Z,100306.19
2022-12-14T00:58:54.425Z,100311.16
2022-12-14T01:01:22.085Z,100308.22
2022-12-14T01:03:49.100Z,100305.22
2022-12-14T01:06:20.023Z,100305.22
2022-12-14T01:08:47.500Z,100296.59
2022-12-14T01:11:14.803Z,100300.28
2022-12-14T01:13:42.557Z,100297.72
2022-12-14T01:16:14.414Z,100295.22
2022-12-14T01:18:42.722Z,100284.97
2022-12-14T01:21:15.501Z,100290.53
2022-12-14T01:23:42.839Z,100295.41
2022-12-14T01:26:12.769Z,100284.50
2022-12-14T01:28:39.421Z,100291.78
2022-12-14T01:31:11.681Z,100286.34
2022-12-14T01:33:38.534Z,100284.34
2022-12-14T01:36:10.900Z,100275.81
2022-12-14T01:38:37.628Z,100275.91
2022-12-14T01:41:05.997Z,100272.59
2022-12-14T01:43:47.129Z,100264.03
2022-12-14T01:46:20.296Z,100266.81
2022-12-14T01:48:48.698Z,100261.31
2022-12-14T01:51:15.798Z,100262.50
2022-12-14T01:53:42.838Z,100263.09
2022-12-14T01:56:12.249Z,100259.41
2022-12-14T01:58:42.002Z,100260.44
2022-12-14T02:01:20.621Z,100250.69
2022-12-14T02:04:00.918Z,100248.13
2022-12-14T02:06:57.871Z,100252.31
2022-12-14T02:09:33.807Z,100247.03
2022-12-14T02:12:25.724Z,100241.78
2022-12-14T02:15:00.966Z,100245.13
2022-12-14T02:17:40.226Z,100243.38
2022-12-14T02:20:07.251Z,100242.72
2022-12-14T02:23:31.042Z,100241.53
2022-12-14T02:26:27.984Z,100233.88
2022-12-14T02:29:20.269Z,100235.09
2022-12-14T02:32:20.832Z,100230.81
2022-12-14T02:35:28.669Z,100221.13
2022-12-14T02:38:26.387Z,100225.63
2022-12-14T02:41:29.542Z,100227.50
2022-12-14T02:44:35.292Z,100222.59
2022-12-14T02:47:40.692Z,100221.69
2022-12-14T02:50:13.907Z,100223.25
2022-12-14T02:56:20.390Z,100217.00
2022-12-14T02:58:54.739Z,100224.41
2022-12-14T03:01:24.271Z,100223.09
2022-12-14T03:06:50.770Z,100218.63
2022-12-14T03:09:24.839Z,100221.56
2022-12-14T03:12:24.585Z,100222.06
2022-12-14T03:15:00.764Z,100220.22
2022-12-14T03:17:35.627Z,100225.28
2022-12-14T03:23:12.771Z,100222.78
2022-12-14T03:25:46.373Z,100224.22
2022-12-14T03:28:18.863Z,100219.34
2022-12-14T03:31:00.276Z,100216.28
2022-12-14T03:33:29.124Z,100218.97
2022-12-14T03:36:01.137Z,100215.66
2022-12-14T03:38:37.753Z,100216.41
2022-12-14T03:41:25.964Z,100205.22
2022-12-14T03:44:04.806Z,100215.22
2022-12-14T03:46:38.458Z,100199.88
2022-12-14T03:49:21.052Z,100198.97
2022-12-14T03:51:53.431Z,100195.63
2022-12-14T03:54:28.175Z,100201.94
2022-12-14T03:56:59.465Z,100197.69
2022-12-14T03:59:28.868Z,100196.50
2022-12-14T04:01:58.103Z,100192.84
2022-12-14T04:04:34.657Z,100189.06
2022-12-14T04:07:21.663Z,100178.69
2022-12-14T04:09:55.149Z,100176.03
2022-12-14T04:12:53.772Z,100171.22
2022-12-14T04:15:44.344Z,100160.53
2022-12-14T04:18:34.564Z,100164.78
2022-12-14T04:21:16.852Z,100157.63
2022-12-14T04:24:06.482Z,100150.97
2022-12-14T04:26:36.740Z,100158.88
2022-12-14T04:29:31.703Z,100158.81
2022-12-14T04:31:59.891Z,100152.75
2022-12-14T04:34:27.999Z,100148.56
2022-12-14T04:37:05.259Z,100147.19
2022-12-14T04:39:54.301Z,100135.97
2022-12-14T04:42:25.692Z,100140.34
2022-12-14T04:44:54.571Z,100131.44
2022-12-14T04:47:23.726Z,100128.66
2022-12-14T04:50:01.866Z,100118.63
2022-12-14T04:53:03.187Z,100120.81
2022-12-14T04:55:40.932Z,100116.66
2022-12-14T04:58:19.526Z,100117.53
2022-12-14T05:01:03.711Z,100115.41
2022-12-14T05:03:33.552Z,100118.72
2022-12-14T05:06:33.267Z,100112.25
2022-12-14T05:09:40.927Z,100108.16
2022-12-14T05:12:41.390Z,100108.44
2022-12-14T05:15:19.945Z,100107.41
2022-12-14T05:18:04.065Z,100093.66
2022-12-14T05:20:45.875Z,100092.03
2022-12-14T05:23:12.649Z,100092.94
2022-12-14T05:25:45.699Z,100084.81
2022-12-14T05:28:16.788Z,100082.38
2022-12-14T05:30:48.829Z,100087.25
2022-12-14T05:33:20.411Z,100080.16
2022-12-14T05:35:47.070Z,100074.44
2022-12-14T05:38:13.649Z,100076.66
2022-12-14T05:40:40.288Z,100086.84
2022-12-14T05:43:07.990Z,100082.66
2022-12-14T05:45:34.605Z,100085.97
2022-12-14T05:48:01.235Z,100074.50
2022-12-14T05:50:27.932Z,100076.25
2022-12-14T05:52:55.755Z,100075.84
2022-12-14T05:55:22.713Z,100068.25
2022-12-14T05:57:49.328Z,100073.75
2022-12-14T06:00:16.084Z,100070.91
2022-12-14T06:02:42.772Z,100061.75
2022-12-14T06:05:09.477Z,100063.16
2022-12-14T06:07:36.159Z,100066.31
2022-12-14T06:10:02.787Z,100060.19
2022-12-14T06:12:29.477Z,100064.06
2022-12-14T06:14:56.067Z,100062.53
2022-12-14T06:17:22.729Z,100060.50
2022-12-14T06:19:49.941Z,100063.13
2022-12-14T06:22:17.901Z,100068.44
2022-12-14T06:24:44.505Z,100055.47
2022-12-14T06:27:11.102Z,100054.59
2022-12-14T06:29:37.686Z,100055.28
2022-12-14T06:32:04.411Z,100059.97
2022-12-14T06:34:34.067Z,100055.88
2022-12-14T06:37:06.206Z,100044.56
2022-12-14T06:39:32.836Z,100047.34
2022-12-14T06:41:59.434Z,100056.28
2022-12-14T06:44:26.067Z,100056.19
2022-12-14T06:46:52.801Z,100051.13
2022-12-14T06:49:19.457Z,100046.63
2022-12-14T06:51:46.181Z,100051.13
2022-12-14T06:54:13.587Z,100045.59
2022-12-14T06:56:40.679Z,100042.94
2022-12-14T06:59:08.769Z,100038.34
2022-12-14T07:01:36.851Z,100032.91
2022-12-14T07:04:04.258Z,100033.97
2022-12-14T07:06:37.132Z,100042.75
2022-12-14T07:09:04.940Z,100035.66
2022-12-14T07:11:31.921Z,100043.75
2022-12-14T07:14:00.748Z,100038.56
2022-12-14T07:16:29.412Z,100039.97
2022-12-14T07:18:56.334Z,100032.28
2022-12-14T07:21:23.535Z,100034.47
2022-12-14T07:23:51.768Z,100038.81
2022-12-14T07:26:21.020Z,100041.50
2022-12-14T07:28:48.014Z,100034.63
2022-12-14T07:31:20.209Z,100033.88
2022-12-14T07:33:47.498Z,100015.56
2022-12-14T07:36:16.587Z,100018.25
2022-12-14T07:38:44.559Z,100015.91
2022-12-14T07:41:20.537Z,100031.25
2022-12-14T07:43:49.711Z,100021.59
2022-12-14T07:46:19.243Z,100023.66
2022-12-14T07:48:47.438Z,100021.03
2022-12-14T07:51:16.424Z,100015.78
2022-12-14T07:53:43.161Z,100017.31
2022-12-14T07:56:16.313Z,100017.00
2022-12-14T07:58:43.006Z,100025.41
2022-12-14T08:01:22.312Z,100022.03
2022-12-14T08:03:53.949Z,100015.53
2022-12-14T08:06:22.390Z,100018.56
2022-12-14T08:08:49.238Z,100014.41
2022-12-14T08:11:16.427Z,100016.34
2022-12-14T08:13:43.456Z,100017.44
2022-12-14T08:16:13.069Z,100013.03
2022-12-14T08:18:39.971Z,100010.88
2022-12-14T08:21:08.114Z,100009.00
2022-12-14T08:23:35.027Z,100013.78
2022-12-14T08:26:02.452Z,100005.06
2022-12-14T08:28:29.830Z,99998.59
2022-12-14T08:30:57.279Z,99998.72
2022-12-14T08:33:24.130Z,99999.59
2022-12-14T08:35:50.777Z,99993.97
2022-12-14T08:38:17.833Z,100003.13
2022-12-14T08:40:44.473Z,99991.84
2022-12-14T08:43:11.077Z,100000.00
2022-12-14T08:45:38.966Z,100001.88
2022-12-14T08:48:05.792Z,100001.81
2022-12-14T08:50:32.418Z,99995.84
2022-12-14T08:52:59.457Z,99993.28
2022-12-14T08:55:30.192Z,99996.66
2022-12-14T08:57:59.276Z,99989.03
2022-12-14T09:00:25.907Z,99998.31
2022-12-14T09:02:52.684Z,99987.66
2022-12-14T09:05:19.441Z,99984.81
2022-12-14T09:07:46.136Z,99984.22
2022-12-14T09:10:13.268Z,99989.09
2022-12-14T09:12:40.037Z,99986.28
2022-12-14T09:15:07.539Z,99981.22
2022-12-14T09:17:34.595Z,99982.31
2022-12-14T09:20:01.379Z,99974.16
2022-12-14T09:22:28.145Z,99969.81
2022-12-14T09:24:54.902Z,99980.59
2022-12-14T09:27:22.557Z,99970.75
2022-12-14T09:29:52.293Z,99966.84
2022-12-14T09:32:18.945Z,99965.84
2022-12-14T09:34:45.589Z,99953.84
2022-12-14T09:37:12.614Z,99964.13
2022-12-14T09:39:39.307Z,99958.03
2022-12-14T09:42:41.386Z,99961.53
2022-12-14T09:45:19.075Z,99959.97
2022-12-14T09:48:00.685Z,99958.34
2022-12-14T09:50:27.849Z,99953.84
2022-12-14T09:53:01.848Z,99939.34
2022-12-14T09:55:36.254Z,99940.53
2022-12-14T09:58:13.272Z,99945.50
2022-12-14T10:00:51.455Z,99940.56
2022-12-14T10:03:24.091Z,99944.91
2022-12-14T10:06:04.240Z,99930.03
2022-12-14T10:08:36.312Z,99933.94
2022-12-14T10:11:11.555Z,99934.53
2022-12-14T10:13:52.809Z,99929.13
2022-12-14T10:16:28.687Z,99928.75
2022-12-14T10:19:18.221Z,99924.25
2022-12-14T10:21:48.600Z,99920.00
2022-12-14T10:24:20.011Z,99918.00
2022-12-14T10:26:53.530Z,99901.34
2022-12-14T10:29:32.624Z,99903.09
2022-12-14T10:32:18.394Z,99894.50
2022-12-14T10:34:45.101Z,99897.94
2022-12-14T10:37:25.633Z,99897.59
2022-12-14T10:40:11.350Z,99891.25
2022-12-14T10:43:08.393Z,99880.78
2022-12-14T10:45:52.162Z,99880.41
2022-12-14T10:48:21.671Z,99877.56
2022-12-14T10:51:05.440Z,99870.00
2022-12-14T10:53:48.263Z,99867.97
2022-12-14T10:56:21.433Z,99864.47
2022-12-14T10:59:20.947Z,99864.25
2022-12-14T11:02:16.851Z,99861.81
2022-12-14T11:05:06.087Z,99854.34
2022-12-14T11:07:33.093Z,99851.38
2022-12-14T11:10:19.606Z,99851.06
2022-12-14T11:13:07.593Z,99845.06
2022-12-14T11:15:47.322Z,99839.34
2022-12-14T11:18:17.015Z,99829.38
2022-12-14T11:20:51.299Z,99836.69
2022-12-14T11:23:20.947Z,99827.19
2022-12-14T11:25:50.839Z,99825.53
2022-12-14T11:28:39.890Z,99829.13
2022-12-14T11:31:06.730Z,99826.69
2022-12-14T11:33:38.588Z,99818.75
2022-12-14T11:36:06.795Z,99819.78
2022-12-14T11:38:33.583Z,99817.06
2022-12-14T11:41:07.238Z,99821.41
2022-12-14T11:43:40.605Z,99811.78
2022-12-14T11:46:07.719Z,99811.00
2022-12-14T11:48:38.532Z,99804.78
2022-12-14T11:51:12.317Z,99810.66
2022-12-14T11:53:39.030Z,99803.81
2022-12-14T11:56:08.491Z,99798.88
2022-12-14T11:58:38.465Z,99797.16
2022-12-14T12:01:11.173Z,99795.13
2022-12-14T12:03:41.602Z,99797.09
2022-12-14T12:06:14.538Z,99791.69
2022-12-14T12:08:42.094Z,99788.91
2022-12-14T12:11:24.217Z,99794.69
2022-12-14T12:13:53.068Z,99785.22
2022-12-14T12:16:26.041Z,99782.91
2022-12-14T12:19:13.523Z,99785.47
2022-12-14T12:21:42.180Z,99786.63
2022-12-14T12:24:21.399Z,99796.81
2022-12-14T12:26:51.571Z,99791.59
2022-12-14T22:34:01.707Z,99740.75
2022-12-14T22:36:28.360Z,99743.88
2022-12-14T22:39:01.860Z,99747.31
2022-12-14T22:41:28.536Z,99751.75
2022-12-14T22:43:56.664Z,99743.31
2022-12-14T22:46:26.453Z,99746.72
2022-12-14T22:48:53.595Z,99744.31
2022-12-14T22:51:21.326Z,99751.78
2022-12-14T22:53:49.564Z,99747.38
2022-12-14T22:56:24.722Z,99754.22
2022-12-14T22:59:02.864Z,99751.09
2022-12-14T23:01:30.224Z,99753.81
2022-12-14T23:03:57.690Z,99759.34
2022-12-14T23:06:24.805Z,99753.91
2022-12-14T23:09:10.219Z,99755.66
2022-12-14T23:11:56.050Z,99764.94
2022-12-14T23:14:41.677Z,99758.38
2022-12-14T23:17:27.065Z,99764.06
2022-12-14T23:20:12.523Z,99756.34
2022-12-14T23:22:57.947Z,99764.13
2022-12-14T23:25:45.971Z,99766.69
2022-12-14T23:28:34.613Z,99777.56
2022-12-14T23:31:20.172Z,99772.03
2022-12-14T23:34:05.685Z,99776.94
2022-12-14T23:36:54.166Z,99771.69
2022-12-14T23:39:39.778Z,99773.53
2022-12-14T23:42:25.618Z,99777.34
2022-12-14T23:45:11.677Z,99777.63
2022-12-14T23:47:59.771Z,99775.19
2022-12-14T23:50:45.137Z,99777.72
2022-12-14T23:53:30.851Z,99779.44
2022-12-14T23:56:16.898Z,99775.44
2022-12-14T23:59:02.334Z,99773.69
